Time;durP1;ratioP1;P1;durP2;ratioP2;P2;SDS_P1;SDS_P2;PMS_P1;PMS_P2;Temp;Humidity;BMP_temperature;BMP_pressure;BME280_temperature;BME280_humidity;BME280_pressure;Samples;Min_cycle;Max_cycle;Signal;HPM_P1;HPM_P2
2022/06/24 00:01:51;;;;;;;3.10;0.88;;;19.60;99.90;;;;;;5006323;28;20103;-37
2022/06/24 00:04:25;;;;;;;1.88;0.98;;;19.60;99.90;;;;;;5007248;28;20041;-38
2022/06/24 00:06:51;;;;;;;2.75;0.95;;;19.70;99.90;;;;;;5012964;28;20129;-39
2022/06/24 00:09:17;;;;;;;2.42;0.82;;;19.70;99.90;;;;;;5005751;28;20037;-39
2022/06/24 00:11:43;;;;;;;1.63;0.65;;;19.70;99.90;;;;;;5007679;28;20117;-39
2022/06/24 00:14:12;;;;;;;1.80;0.90;;;19.60;99.90;;;;;;5007739;28;20026;-40
2022/06/24 00:16:58;;;;;;;1.33;0.60;;;19.60;99.90;;;;;;5008413;28;20591;-37
2022/06/24 00:19:25;;;;;;;3.05;0.93;;;19.60;99.90;;;;;;5005834;28;20458;-37
2022/06/24 00:22:05;;;;;;;2.80;0.90;;;19.70;99.90;;;;;;5023786;28;20137;-35
2022/06/24 00:24:33;;;;;;;1.08;0.88;;;19.70;99.90;;;;;;5009981;28;20065;-36
2022/06/24 00:26:58;;;;;;;3.20;0.90;;;19.80;99.90;;;;;;5010352;28;20030;-36
2022/06/24 00:29:26;;;;;;;1.70;1.00;;;19.90;99.90;;;;;;5010280;28;20774;-35
2022/06/24 00:32:07;;;;;;;3.58;0.90;;;19.70;99.90;;;;;;5006517;28;20038;-37
2022/06/24 00:34:38;;;;;;;2.38;0.80;;;19.70;99.90;;;;;;5008974;28;20022;-36
2022/06/24 00:37:27;;;;;;;3.17;0.90;;;19.70;99.90;;;;;;5023921;28;20042;-36
2022/06/24 00:40:14;;;;;;;3.22;0.80;;;19.50;99.90;;;;;;5010211;28;20029;-37
2022/06/24 00:42:41;;;;;;;3.88;1.00;;;19.50;99.90;;;;;;5006326;28;20057;-38
2022/06/24 00:45:15;;;;;;;2.53;0.98;;;19.40;99.90;;;;;;5008711;28;20022;-38
2022/06/24 00:47:42;;;;;;;2.35;0.80;;;19.40;99.90;;;;;;5007116;28;20577;-37
2022/06/24 00:50:27;;;;;;;0.65;0.55;;;19.30;99.90;;;;;;5019316;28;20048;-38
2022/06/24 00:52:55;;;;;;;3.20;0.95;;;18.90;99.90;;;;;;5004423;28;20045;-38
2022/06/24 00:55:28;;;;;;;2.08;1.02;;;18.90;99.90;;;;;;5004565;28;20618;-37
2022/06/24 00:57:55;;;;;;;2.13;0.95;;;18.80;99.90;;;;;;5001624;28;20113;-36
2022/06/24 01:00:24;;;;;;;2.95;1.17;;;18.70;99.90;;;;;;5005750;28;20077;-39
2022/06/24 01:02:56;;;;;;;1.08;0.90;;;18.70;99.90;;;;;;5003713;28;20053;-36
2022/06/24 01:05:22;;;;;;;3.17;1.17;;;18.70;99.90;;;;;;5005233;28;20127;-38
2022/06/24 01:07:47;;;;;;;3.42;0.98;;;18.80;99.90;;;;;;5004443;28;20073;-39
2022/06/24 01:10:13;;;;;;;3.50;1.05;;;18.80;99.90;;;;;;5005440;28;20045;-37
2022/06/24 01:12:38;;;;;;;3.00;0.75;;;18.90;99.90;;;;;;5004559;28;20376;-36
2022/06/24 01:15:05;;;;;;;3.15;1.15;;;18.90;99.90;;;;;;5006947;28;20025;-38
2022/06/24 01:17:31;;;;;;;2.67;1.17;;;18.80;99.90;;;;;;5008449;28;20105;-39
2022/06/24 01:19:57;;;;;;;4.32;1.15;;;18.80;99.90;;;;;;5005585;28;20103;-39
2022/06/24 01:22:24;;;;;;;2.53;0.80;;;18.70;99.90;;;;;;5020452;28;20464;-38
2022/06/24 01:24:51;;;;;;;3.58;0.90;;;18.70;99.90;;;;;;5007862;28;20089;-37
2022/06/24 01:27:17;;;;;;;2.75;1.10;;;18.80;99.90;;;;;;5011023;28;20036;-36
2022/06/24 01:29:43;;;;;;;2.33;0.95;;;18.90;99.90;;;;;;5007051;28;20026;-35
2022/06/24 01:32:10;;;;;;;4.15;1.30;;;19.00;99.90;;;;;;5003990;28;20041;-39
2022/06/24 01:34:36;;;;;;;2.58;1.17;;;19.10;99.90;;;;;;5005914;28;20034;-38
2022/06/24 01:37:03;;;;;;;2.97;1.35;;;19.10;99.90;;;;;;5003975;28;20033;-36
2022/06/24 01:39:29;;;;;;;3.00;1.23;;;19.10;99.90;;;;;;4986617;28;20029;-38
2022/06/24 01:41:55;;;;;;;2.50;1.20;;;19.10;99.90;;;;;;4999497;28;20786;-38
2022/06/24 01:44:24;;;;;;;1.20;1.08;;;19.20;99.90;;;;;;5001192;28;20022;-38
2022/06/24 01:46:51;;;;;;;1.83;1.20;;;19.20;99.90;;;;;;4998661;28;20486;-39
2022/06/24 01:49:17;;;;;;;1.73;1.20;;;19.20;99.90;;;;;;5000945;28;20041;-37
2022/06/24 01:51:46;;;;;;;2.88;1.10;;;19.20;99.90;;;;;;5001550;28;20037;-37
2022/06/24 01:54:12;;;;;;;4.07;1.42;;;19.10;99.90;;;;;;4999828;28;20033;-39
2022/06/24 01:56:38;;;;;;;2.95;2.00;;;18.90;99.90;;;;;;4997397;28;20553;-38
2022/06/24 01:59:04;;;;;;;2.45;1.10;;;18.80;99.90;;;;;;5001152;28;20490;-40
2022/06/24 02:01:30;;;;;;;2.60;1.50;;;18.70;99.90;;;;;;5015689;28;20558;-36
2022/06/24 02:03:56;;;;;;;2.03;1.30;;;18.70;99.90;;;;;;5014159;28;20033;-36
2022/06/24 02:06:22;;;;;;;1.67;1.10;;;18.50;99.90;;;;;;5003333;28;20050;-38
2022/06/24 02:08:48;;;;;;;1.70;1.00;;;18.40;99.90;;;;;;5005328;28;20038;-37
2022/06/24 02:14:00;;;;;;;2.78;0.90;;;18.50;99.90;;;;;;5003041;28;20032;-38
2022/06/24 02:16:26;;;;;;;3.60;1.25;;;18.60;99.90;;;;;;5003429;28;20033;-36
2022/06/24 02:18:54;;;;;;;1.27;1.10;;;18.60;99.90;;;;;;5004791;28;20474;-39
2022/06/24 02:21:21;;;;;;;6.93;1.45;;;18.60;99.90;;;;;;5006195;28;20026;-39
2022/06/24 02:23:47;;;;;;;2.03;1.30;;;18.70;99.90;;;;;;5000475;28;20030;-37
2022/06/24 02:26:12;;;;;;;5.35;1.35;;;18.70;99.90;;;;;;5007128;28;20026;-39
2022/06/24 02:28:38;;;;;;;3.60;1.23;;;18.50;99.90;;;;;;5004945;28;20041;-38
2022/06/24 02:31:04;;;;;;;2.17;1.40;;;18.40;99.90;;;;;;5000574;28;20048;-37
2022/06/24 02:33:30;;;;;;;3.00;1.30;;;18.40;99.90;;;;;;5001938;28;20022;-39
2022/06/24 02:35:56;;;;;;;4.35;1.15;;;18.30;99.90;;;;;;5008159;28;21026;-39
2022/06/24 02:38:21;;;;;;;3.42;1.20;;;18.40;99.90;;;;;;5004541;28;20038;-35
2022/06/24 02:40:47;;;;;;;2.90;1.15;;;18.50;99.90;;;;;;5005552;28;20025;-39
2022/06/24 02:43:24;;;;;;;3.22;1.17;;;18.40;99.90;;;;;;5002726;28;20025;-39
2022/06/24 02:45:56;;;;;;;2.53;0.98;;;18.50;99.90;;;;;;5003769;28;20034;-39
2022/06/24 02:48:22;;;;;;;3.05;1.10;;;18.50;99.90;;;;;;5004232;28;20604;-39
2022/06/24 02:50:50;;;;;;;1.25;0.98;;;18.50;99.90;;;;;;5003609;28;20034;-36
2022/06/24 02:53:17;;;;;;;0.98;0.93;;;18.60;99.90;;;;;;4998758;28;20352;-38
2022/06/24 02:55:48;;;;;;;1.65;0.90;;;18.60;99.90;;;;;;5002144;28;20030;-39
2022/06/24 02:58:15;;;;;;;2.22;1.17;;;18.50;99.90;;;;;;5004346;28;20030;-40
2022/06/24 03:00:41;;;;;;;0.98;0.93;;;18.50;99.90;;;;;;5007900;28;20123;-37
2022/06/24 03:03:16;;;;;;;3.20;1.00;;;18.50;99.90;;;;;;5006350;28;20036;-38
2022/06/24 03:05:43;;;;;;;1.50;1.10;;;18.50;99.90;;;;;;5007158;28;20558;-37
2022/06/24 03:08:10;;;;;;;4.35;1.10;;;18.60;99.90;;;;;;5006934;28;20427;-38
2022/06/24 03:10:37;;;;;;;4.07;1.15;;;18.60;99.90;;;;;;5006661;28;20040;-37
2022/06/24 03:13:03;;;;;;;0.90;0.90;;;18.60;99.90;;;;;;5005758;28;20065;-39
2022/06/24 03:15:29;;;;;;;0.77;0.77;;;18.50;99.90;;;;;;5007336;28;20064;-36
2022/06/24 03:17:56;;;;;;;1.40;1.13;;;18.50;99.90;;;;;;5007195;28;20029;-37
2022/06/24 03:20:21;;;;;;;2.85;1.23;;;18.50;99.90;;;;;;5021886;28;20037;-37
2022/06/24 03:22:47;;;;;;;3.75;1.17;;;18.60;99.90;;;;;;5006172;28;20040;-37
2022/06/24 03:25:13;;;;;;;2.00;1.27;;;18.60;99.90;;;;;;5009051;28;20038;-38
2022/06/24 03:27:38;;;;;;;1.63;1.25;;;18.60;99.90;;;;;;5006615;28;20049;-37
2022/06/24 03:30:06;;;;;;;1.70;1.05;;;18.60;99.90;;;;;;5005198;28;20034;-39
2022/06/24 03:32:32;;;;;;;1.77;1.10;;;18.50;99.90;;;;;;5007040;28;20096;-38
2022/06/24 03:34:58;;;;;;;1.20;1.08;;;18.50;99.90;;;;;;5020055;28;20026;-39
2022/06/24 03:37:24;;;;;;;4.03;1.80;;;18.30;99.90;;;;;;5004333;28;20441;-37
2022/06/24 03:39:50;;;;;;;2.50;1.13;;;18.30;99.90;;;;;;5003043;28;20554;-39
2022/06/24 03:42:15;;;;;;;1.15;1.05;;;18.30;99.90;;;;;;5004946;28;20080;-38
2022/06/24 03:44:41;;;;;;;2.78;1.10;;;18.40;99.90;;;;;;5006833;28;20117;-39
2022/06/24 03:47:07;;;;;;;1.02;1.00;;;18.50;99.90;;;;;;5020263;28;20568;-38
2022/06/24 03:49:33;;;;;;;1.17;1.00;;;18.40;99.90;;;;;;5006916;28;20049;-39
2022/06/24 03:51:58;;;;;;;1.02;1.00;;;18.30;99.90;;;;;;5006799;28;20129;-37
2022/06/24 03:54:24;;;;;;;4.82;0.95;;;18.40;99.90;;;;;;5008626;28;20747;-37
2022/06/24 03:56:50;;;;;;;3.75;1.20;;;18.30;99.90;;;;;;5008645;28;20545;-37
2022/06/24 03:59:16;;;;;;;2.17;1.75;;;18.20;99.90;;;;;;5006127;28;20812;-39
2022/06/24 04:01:41;;;;;;;2.58;0.93;;;18.30;99.90;;;;;;5022135;28;20061;-38
2022/06/24 04:04:07;;;;;;;2.47;1.20;;;18.30;99.90;;;;;;5003452;28;20128;-35
2022/06/24 04:06:33;;;;;;;2.08;1.17;;;18.30;99.90;;;;;;5021034;28;20081;-39
2022/06/24 04:08:58;;;;;;;3.08;1.20;;;18.30;99.90;;;;;;5006480;28;20040;-36
2022/06/24 04:11:24;;;;;;;1.65;1.27;;;18.30;99.90;;;;;;5006849;28;20038;-38
2022/06/24 04:13:50;;;;;;;1.20;1.10;;;18.30;99.90;;;;;;5004966;28;20029;-39
2022/06/24 04:16:15;;;;;;;1.60;1.02;;;18.30;99.90;;;;;;5006377;28;20026;-38
2022/06/24 04:18:41;;;;;;;1.52;1.42;;;18.20;99.90;;;;;;5007548;28;20509;-40
2022/06/24 04:21:15;;;;;;;1.23;1.13;;;18.40;99.90;;;;;;5007781;28;20037;-39
2022/06/24 04:23:42;;;;;;;1.15;1.00;;;18.40;99.90;;;;;;5003329;28;20092;-39
2022/06/24 04:26:09;;;;;;;1.65;0.90;;;18.50;99.90;;;;;;5004159;28;20386;-38
2022/06/24 04:28:35;;;;;;;4.43;1.35;;;18.50;99.90;;;;;;5007059;28;20038;-39
2022/06/24 04:31:01;;;;;;;3.95;1.42;;;18.50;99.90;;;;;;5004191;28;20526;-37
2022/06/24 04:33:27;;;;;;;2.45;0.98;;;18.50;99.90;;;;;;5003018;28;20022;-38
2022/06/24 04:35:53;;;;;;;2.80;1.42;;;18.50;99.90;;;;;;5002224;28;20030;-36
2022/06/24 04:38:18;;;;;;;1.80;1.10;;;18.50;99.90;;;;;;5007394;28;20026;-37
2022/06/24 04:40:44;;;;;;;1.88;1.10;;;18.50;99.90;;;;;;5006298;28;20595;-38
2022/06/24 04:43:10;;;;;;;1.20;1.10;;;18.60;99.90;;;;;;5004917;28;20029;-36
2022/06/24 04:45:36;;;;;;;4.80;1.30;;;18.60;99.90;;;;;;5004634;28;20030;-39
2022/06/24 04:48:02;;;;;;;3.00;1.45;;;18.60;99.90;;;;;;5005828;28;20466;-37
2022/06/24 04:50:29;;;;;;;1.20;1.10;;;18.40;99.90;;;;;;5002775;28;20029;-38
2022/06/24 04:52:55;;;;;;;2.72;1.33;;;18.50;99.90;;;;;;5003787;28;20034;-39
2022/06/24 04:55:21;;;;;;;3.72;1.30;;;18.50;99.90;;;;;;5004390;28;20126;-39
2022/06/24 04:57:47;;;;;;;3.13;1.23;;;18.50;99.90;;;;;;5003704;28;20178;-39
2022/06/24 05:00:14;;;;;;;1.38;1.05;;;18.50;99.90;;;;;;5005099;28;20076;-39
2022/06/24 05:02:41;;;;;;;2.28;1.30;;;18.60;99.90;;;;;;5000471;28;20400;-39
2022/06/24 05:05:08;;;;;;;4.57;1.23;;;18.70;99.90;;;;;;5003546;28;20495;-38
2022/06/24 05:07:34;;;;;;;1.02;1.00;;;18.60;99.90;;;;;;5010124;28;20506;-38
2022/06/24 05:09:59;;;;;;;1.33;1.23;;;18.60;99.90;;;;;;5003038;28;20033;-36
2022/06/24 05:12:25;;;;;;;4.00;1.65;;;18.60;99.90;;;;;;5004195;28;20025;-39
2022/06/24 05:14:51;;;;;;;1.42;1.25;;;18.70;99.90;;;;;;5002894;28;20519;-36
2022/06/24 05:17:17;;;;;;;2.97;1.05;;;18.70;99.90;;;;;;5005569;28;20036;-38
2022/06/24 05:19:42;;;;;;;2.25;1.20;;;18.70;99.90;;;;;;5003653;28;20034;-39
2022/06/24 05:22:08;;;;;;;4.45;1.50;;;18.70;99.90;;;;;;5004658;28;20401;-39
2022/06/24 05:24:34;;;;;;;2.58;1.15;;;18.70;99.90;;;;;;5005388;28;20129;-39
2022/06/24 05:26:59;;;;;;;1.40;1.30;;;18.70;99.90;;;;;;5002858;28;20045;-39
2022/06/24 05:29:25;;;;;;;3.17;1.20;;;18.70;99.90;;;;;;5005585;28;20474;-38
2022/06/24 05:31:51;;;;;;;1.60;1.20;;;18.70;99.90;;;;;;5003252;28;20425;-40
2022/06/24 05:34:16;;;;;;;1.75;1.10;;;18.70;99.90;;;;;;5005141;28;20046;-38
2022/06/24 05:36:43;;;;;;;2.42;1.48;;;18.80;99.90;;;;;;5016423;28;20395;-40
2022/06/24 05:39:09;;;;;;;3.25;1.08;;;18.80;99.90;;;;;;5004755;28;20038;-36
2022/06/24 05:41:37;;;;;;;4.20;1.20;;;18.80;99.90;;;;;;5004165;28;20061;-38
2022/06/24 05:44:03;;;;;;;2.80;1.40;;;18.90;99.90;;;;;;5007900;28;20596;-40
2022/06/24 05:46:29;;;;;;;2.60;1.27;;;18.80;99.90;;;;;;5005919;28;20037;-36
2022/06/24 05:48:58;;;;;;;1.95;0.90;;;18.90;99.90;;;;;;5005854;28;20033;-39
2022/06/24 05:51:24;;;;;;;3.47;1.30;;;18.80;99.90;;;;;;5004030;28;20116;-39
2022/06/24 05:56:35;;;;;;;2.60;1.10;;;18.90;99.90;;;;;;5001664;28;20505;-39
2022/06/24 05:59:01;;;;;;;1.65;1.30;;;18.80;99.90;;;;;;5007106;28;20029;-40
2022/06/24 06:01:28;;;;;;;1.38;1.05;;;18.70;99.90;;;;;;5006508;28;20040;-39
2022/06/24 06:03:54;;;;;;;2.50;1.50;;;18.80;99.90;;;;;;5008398;28;20080;-37
2022/06/24 06:06:20;;;;;;;4.43;1.65;;;18.80;99.90;;;;;;5006421;28;20428;-37
2022/06/24 06:08:46;;;;;;;1.25;1.00;;;18.80;99.90;;;;;;5005247;28;20026;-39
2022/06/24 06:11:14;;;;;;;4.32;1.52;;;18.80;99.90;;;;;;5002264;28;20030;-37
2022/06/24 06:13:42;;;;;;;3.70;1.50;;;18.90;99.90;;;;;;5021384;28;20060;-39
2022/06/24 06:16:08;;;;;;;2.58;1.40;;;18.90;99.90;;;;;;5003706;28;20073;-39
2022/06/24 06:18:35;;;;;;;3.38;1.35;;;18.90;99.90;;;;;;5006810;28;20988;-39
2022/06/24 06:21:02;;;;;;;2.67;1.38;;;18.90;99.90;;;;;;5008395;28;20056;-39
2022/06/24 06:23:28;;;;;;;2.65;1.10;;;19.00;99.90;;;;;;5008282;28;20063;-40
2022/06/24 06:25:56;;;;;;;3.22;1.20;;;19.10;99.90;;;;;;5006458;28;20033;-39
2022/06/24 06:28:22;;;;;;;2.17;1.27;;;19.10;99.90;;;;;;5006344;28;20592;-39
2022/06/24 06:30:48;;;;;;;1.58;1.20;;;19.20;99.90;;;;;;5010771;28;20042;-38
2022/06/24 06:33:14;;;;;;;3.88;1.30;;;19.20;99.90;;;;;;5010316;28;20029;-39
2022/06/24 06:35:40;;;;;;;5.05;1.40;;;19.30;99.90;;;;;;5013139;28;20026;-37
2022/06/24 06:38:06;;;;;;;5.43;1.20;;;19.30;99.90;;;;;;5013858;28;20025;-37
2022/06/24 06:40:35;;;;;;;2.60;1.27;;;19.40;99.90;;;;;;5008840;28;20065;-37
2022/06/24 06:43:03;;;;;;;1.70;1.10;;;19.40;99.90;;;;;;4993645;28;20030;-39
2022/06/24 06:45:29;;;;;;;2.67;1.05;;;19.30;99.90;;;;;;4993940;28;20506;-38
2022/06/24 06:47:55;;;;;;;1.83;1.00;;;19.30;99.90;;;;;;5011712;28;20032;-40
2022/06/24 06:50:21;;;;;;;4.03;1.25;;;19.40;99.90;;;;;;5012523;28;20475;-40
2022/06/24 06:52:46;;;;;;;2.92;1.35;;;19.40;99.90;;;;;;4995151;28;20030;-39
2022/06/24 06:55:12;;;;;;;1.48;1.08;;;19.50;99.90;;;;;;5011826;28;20026;-40
2022/06/24 06:57:38;;;;;;;4.82;1.40;;;19.40;99.90;;;;;;5010052;28;20120;-38
2022/06/24 07:00:06;;;;;;;4.30;1.25;;;19.40;99.90;;;;;;5010933;28;20026;-39
2022/06/24 07:02:32;;;;;;;1.63;1.00;;;19.50;99.90;;;;;;5025107;28;20415;-40
2022/06/24 07:04:58;;;;;;;2.60;1.23;;;19.50;99.90;;;;;;5015290;28;20045;-38
2022/06/24 07:07:24;;;;;;;3.50;1.05;;;19.50;99.90;;;;;;5010747;28;20448;-38
2022/06/24 07:09:51;;;;;;;2.78;1.45;;;19.50;99.90;;;;;;5007661;28;20072;-39
2022/06/24 07:12:17;;;;;;;2.70;1.20;;;19.50;99.90;;;;;;5008212;28;20033;-38
2022/06/24 07:14:43;;;;;;;1.50;1.20;;;19.50;99.90;;;;;;5010445;28;20542;-38
2022/06/24 07:17:09;;;;;;;3.33;1.02;;;19.50;99.90;;;;;;5011022;28;20392;-40
2022/06/24 07:19:35;;;;;;;2.10;1.02;;;19.60;99.90;;;;;;5012607;28;20032;-39
2022/06/24 07:22:01;;;;;;;1.52;1.20;;;19.60;99.90;;;;;;5008790;28;20049;-40
2022/06/24 07:24:26;;;;;;;1.80;0.90;;;19.60;99.90;;;;;;5011737;28;20021;-39
2022/06/24 07:26:52;;;;;;;1.10;1.00;;;19.50;99.90;;;;;;5006341;28;20026;-39
2022/06/24 07:29:18;;;;;;;1.85;1.20;;;19.50;99.90;;;;;;5013684;28;20438;-39
2022/06/24 07:31:47;;;;;;;1.80;1.50;;;19.50;99.90;;;;;;5012148;28;20511;-39
2022/06/24 07:34:16;;;;;;;1.88;1.30;;;19.60;99.90;;;;;;5015047;28;20491;-39
2022/06/24 07:36:42;;;;;;;3.53;1.30;;;19.70;99.90;;;;;;5012495;28;20239;-39
2022/06/24 07:39:09;;;;;;;3.53;1.65;;;19.80;99.90;;;;;;5012825;28;20037;-38
2022/06/24 07:41:35;;;;;;;4.40;1.30;;;19.80;99.90;;;;;;5014619;28;20584;-38
2022/06/24 07:44:00;;;;;;;3.10;1.38;;;19.80;99.90;;;;;;5013288;28;20129;-39
2022/06/24 07:46:27;;;;;;;5.43;1.45;;;19.80;99.90;;;;;;5014772;28;20502;-37
2022/06/24 07:48:53;;;;;;;3.28;1.45;;;19.80;99.90;;;;;;5009790;28;20041;-36
2022/06/24 07:51:19;;;;;;;3.67;1.73;;;19.90;99.90;;;;;;5012999;28;20030;-37
2022/06/24 07:53:47;;;;;;;4.43;2.05;;;19.80;99.90;;;;;;5013366;28;20403;-37
2022/06/24 07:58:57;;;;;;;4.18;1.50;;;19.80;99.90;;;;;;5014347;28;20103;-39
2022/06/24 08:01:23;;;;;;;5.65;1.88;;;19.80;99.90;;;;;;5011219;28;20430;-39
2022/06/24 08:03:49;;;;;;;5.15;1.80;;;19.80;99.90;;;;;;5014188;28;20121;-37
2022/06/24 08:06:15;;;;;;;1.52;1.33;;;19.90;99.90;;;;;;5014437;28;20776;-39
2022/06/24 08:08:40;;;;;;;3.83;1.48;;;20.00;99.90;;;;;;5018643;28;20116;-39
2022/06/24 08:11:06;;;;;;;4.45;1.40;;;20.00;99.90;;;;;;5012125;28;20044;-35
2022/06/24 08:13:32;;;;;;;3.80;1.70;;;20.00;99.90;;;;;;5020127;28;20030;-38
2022/06/24 08:15:58;;;;;;;4.28;1.70;;;20.10;99.90;;;;;;5011489;28;20467;-38
2022/06/24 08:18:24;;;;;;;2.25;1.60;;;20.20;99.90;;;;;;5010988;28;20415;-38
2022/06/24 08:20:50;;;;;;;2.13;1.55;;;20.20;99.90;;;;;;5012855;28;20061;-36
2022/06/24 08:23:16;;;;;;;2.35;1.90;;;20.20;99.90;;;;;;5009855;28;20034;-39
2022/06/24 08:25:42;;;;;;;4.20;1.85;;;20.20;99.90;;;;;;5022846;28;20037;-38
2022/06/24 08:28:07;;;;;;;4.63;1.90;;;20.30;99.90;;;;;;5009239;28;20505;-38
2022/06/24 08:30:34;;;;;;;2.50;1.50;;;20.20;99.90;;;;;;5008507;28;20430;-36
2022/06/24 08:33:01;;;;;;;5.30;2.28;;;20.10;99.90;;;;;;5023653;28;20030;-37
2022/06/24 08:35:26;;;;;;;3.58;2.15;;;20.20;99.90;;;;;;5009429;28;20037;-37
2022/06/24 08:37:53;;;;;;;2.20;1.75;;;20.20;99.90;;;;;;5014522;28;20520;-38
2022/06/24 08:40:20;;;;;;;4.03;1.95;;;20.10;99.90;;;;;;5010595;28;20093;-38
2022/06/24 08:42:52;;;;;;;6.32;2.22;;;20.00;99.90;;;;;;5006296;28;20576;-37
2022/06/24 08:45:18;;;;;;;4.40;1.98;;;20.10;99.90;;;;;;5011771;28;20034;-39
2022/06/24 08:47:48;;;;;;;4.57;1.83;;;19.90;99.90;;;;;;5012242;28;20038;-39
2022/06/24 08:50:14;;;;;;;4.32;1.98;;;19.90;99.90;;;;;;5011800;28;20038;-39
2022/06/24 08:52:45;;;;;;;3.72;1.85;;;20.00;99.90;;;;;;5013259;28;20476;-36
2022/06/24 08:55:15;;;;;;;5.20;2.33;;;20.10;99.90;;;;;;5010732;28;20063;-39
2022/06/24 08:57:41;;;;;;;4.90;1.90;;;20.10;99.90;;;;;;5019173;28;20030;-37
2022/06/24 09:00:07;;;;;;;6.93;2.30;;;20.20;99.90;;;;;;5014186;28;20196;-38
2022/06/24 09:02:33;;;;;;;4.68;1.80;;;20.10;99.90;;;;;;5012524;28;20057;-40
2022/06/24 09:05:00;;;;;;;3.22;1.80;;;20.20;99.90;;;;;;5007354;28;20026;-39
2022/06/24 09:07:29;;;;;;;4.90;2.17;;;20.30;99.90;;;;;;5010158;28;20049;-38
2022/06/24 09:10:00;;;;;;;4.20;2.65;;;20.40;99.90;;;;;;5005541;28;20045;-38
2022/06/24 09:12:30;;;;;;;3.95;1.80;;;20.50;99.90;;;;;;5010305;28;20090;-38
2022/06/24 09:15:02;;;;;;;2.70;1.77;;;20.50;99.90;;;;;;5008272;28;20554;-36
2022/06/24 09:17:29;;;;;;;4.85;2.00;;;20.50;99.90;;;;;;5008878;28;20026;-39
2022/06/24 09:20:13;;;;;;;6.63;2.05;;;20.40;99.90;;;;;;5010474;28;20037;-38
2022/06/24 09:22:39;;;;;;;4.40;2.08;;;20.20;99.90;;;;;;5009092;28;20088;-38
2022/06/24 09:25:07;;;;;;;4.32;1.85;;;20.30;99.90;;;;;;5008112;28;20026;-39
2022/06/24 09:27:33;;;;;;;6.43;2.40;;;20.50;99.90;;;;;;5012482;28;20026;-38
2022/06/24 09:29:59;;;;;;;2.55;1.95;;;20.60;99.90;;;;;;5012143;28;20030;-39
2022/06/24 09:32:25;;;;;;;5.43;2.45;;;20.80;99.90;;;;;;5007384;28;20671;-40
2022/06/24 09:35:18;;;;;;;4.45;3.00;;;20.90;99.90;;;;;;5012328;28;20022;-37
2022/06/24 09:37:46;;;;;;;7.57;2.40;;;20.90;99.90;;;;;;5010726;28;20041;-36
2022/06/24 09:40:30;;;;;;;3.92;2.00;;;21.00;99.90;;;;;;5011031;28;20583;-37
2022/06/24 09:43:04;;;;;;;6.20;2.00;;;21.20;99.90;;;;;;5009020;28;20030;-39
2022/06/24 09:45:47;;;;;;;5.47;2.15;;;21.20;99.90;;;;;;5010138;28;20052;-40
2022/06/24 09:48:40;;;;;;;4.82;1.98;;;21.50;99.90;;;;;;5008833;28;20080;-36
2022/06/24 09:51:07;;;;;;;6.13;2.63;;;21.40;99.90;;;;;;5019571;28;20117;-36
2022/06/24 09:53:37;;;;;;;6.22;2.30;;;21.60;99.90;;;;;;5010122;28;20030;-39
2022/06/24 09:56:07;;;;;;;3.95;2.05;;;21.80;99.90;;;;;;5010567;28;20415;-40
2022/06/24 09:58:38;;;;;;;5.78;2.10;;;21.90;99.90;;;;;;4998484;28;20030;-39
2022/06/24 10:01:05;;;;;;;5.20;2.10;;;22.00;99.90;;;;;;5010574;28;20509;-37
2022/06/24 10:03:32;;;;;;;4.97;1.77;;;22.20;99.90;;;;;;5009592;28;20022;-38
2022/06/24 10:06:04;;;;;;;7.35;2.03;;;22.20;99.90;;;;;;5010292;28;20075;-39
2022/06/24 10:08:34;;;;;;;4.90;2.28;;;22.40;99.90;;;;;;5009892;28;20695;-36
2022/06/24 10:11:04;;;;;;;5.47;2.13;;;22.60;99.90;;;;;;5005996;28;20030;-37
2022/06/24 10:13:32;;;;;;;4.85;2.08;;;22.70;99.90;;;;;;5010144;28;20022;-40
2022/06/24 10:16:03;;;;;;;4.10;2.00;;;22.90;99.90;;;;;;5009612;28;20018;-39
2022/06/24 10:18:39;;;;;;;5.65;1.70;;;23.30;99.90;;;;;;5025943;28;20084;-37
2022/06/24 10:21:07;;;;;;;9.43;2.30;;;23.40;99.90;;;;;;5011153;28;20486;-39
2022/06/24 10:23:48;;;;;;;3.90;1.83;;;23.30;99.90;;;;;;5011680;28;20077;-36
2022/06/24 10:26:30;;;;;;;9.73;2.40;;;23.30;99.90;;;;;;5015628;28;20104;-37
2022/06/24 10:29:04;;;;;;;4.00;2.05;;;23.30;99.90;;;;;;5013803;28;20033;-37
2022/06/24 10:31:42;;;;;;;3.70;2.42;;;23.20;99.90;;;;;;5006717;28;20030;-40
2022/06/24 10:34:08;;;;;;;7.47;2.08;;;23.20;99.40;;;;;;5003171;28;20575;-39
2022/06/24 10:36:35;;;;;;;5.32;1.70;;;23.20;98.50;;;;;;5010985;28;20026;-36
2022/06/24 10:39:12;;;;;;;7.05;1.95;;;23.10;99.90;;;;;;5009963;28;20762;-37
2022/06/24 10:41:39;;;;;;;3.63;1.50;;;23.20;99.30;;;;;;5004075;28;20042;-38
2022/06/24 10:44:24;;;;;;;7.75;1.95;;;23.20;98.20;;;;;;5011204;28;20474;-40
2022/06/24 10:47:25;;;;;;;4.90;2.10;;;23.20;99.90;;;;;;5010959;28;20065;-39
2022/06/24 10:50:09;;;;;;;4.70;2.10;;;23.30;99.90;;;;;;5005190;28;20046;-37
2022/06/24 10:52:50;;;;;;;6.57;2.45;;;23.30;98.90;;;;;;5010862;28;20483;-39
2022/06/24 10:55:16;;;;;;;6.80;2.50;;;23.30;98.70;;;;;;5025546;28;20033;-39
2022/06/24 10:57:46;;;;;;;5.88;2.20;;;23.30;99.90;;;;;;5010246;28;20048;-38
2022/06/24 11:00:20;;;;;;;4.65;2.35;;;23.30;99.90;;;;;;5028649;28;20076;-40
2022/06/24 11:03:07;;;;;;;5.20;2.15;;;23.30;99.90;;;;;;5012248;28;20065;-38
2022/06/24 11:05:35;;;;;;;6.60;2.60;;;23.20;99.90;;;;;;4987239;28;20041;-38
2022/06/24 11:08:03;;;;;;;6.07;2.30;;;23.40;99.90;;;;;;5009115;28;20050;-39
2022/06/24 11:10:30;;;;;;;5.40;1.80;;;23.30;99.90;;;;;;5018497;28;20036;-38
2022/06/24 11:12:58;;;;;;;5.68;2.28;;;23.50;98.70;;;;;;5011841;28;20411;-38
2022/06/24 11:15:43;;;;;;;7.22;2.58;;;23.50;98.50;;;;;;5012711;28;20072;-39
2022/06/24 11:18:12;;;;;;;4.82;2.20;;;23.50;97.00;;;;;;5018922;28;20033;-39
2022/06/24 11:20:43;;;;;;;5.85;2.10;;;23.60;99.90;;;;;;5016068;28;20022;-39
2022/06/24 11:23:11;;;;;;;4.53;2.20;;;23.90;97.70;;;;;;5013737;28;20084;-39
2022/06/24 11:25:40;;;;;;;6.30;2.10;;;24.00;97.50;;;;;;5013579;28;20671;-39
2022/06/24 11:28:20;;;;;;;5.45;1.90;;;23.90;93.60;;;;;;5031810;28;20442;-37
2022/06/24 11:30:46;;;;;;;5.60;2.33;;;23.90;96.50;;;;;;5009289;28;20034;-39
2022/06/24 11:33:11;;;;;;;6.65;2.22;;;23.90;90.80;;;;;;5013156;28;20041;-39
2022/06/24 11:35:37;;;;;;;8.27;2.65;;;24.30;91.20;;;;;;5011941;28;20561;-39
2022/06/24 11:38:08;;;;;;;4.07;2.20;;;23.90;93.40;;;;;;5012855;28;20030;-37
2022/06/24 11:40:35;;;;;;;7.43;2.13;;;23.90;95.00;;;;;;5010927;28;20048;-36
2022/06/24 11:43:05;;;;;;;3.22;1.67;;;23.80;88.90;;;;;;5012453;28;20117;-38
2022/06/24 11:45:39;;;;;;;3.15;2.20;;;23.60;85.70;;;;;;5006245;28;20120;-38
2022/06/24 11:48:06;;;;;;;4.53;2.05;;;23.60;91.90;;;;;;5011123;28;20033;-36
2022/06/24 11:50:35;;;;;;;2.80;1.80;;;24.10;93.40;;;;;;5013915;28;20046;-38
2022/06/24 11:53:03;;;;;;;4.88;1.90;;;24.00;83.20;;;;;;5015806;28;20077;-36
2022/06/24 11:55:34;;;;;;;4.18;2.00;;;23.80;90.80;;;;;;5014148;28;20117;-36
2022/06/24 11:58:02;;;;;;;6.55;1.90;;;24.10;91.70;;;;;;5010039;28;20029;-39
2022/06/24 12:00:32;;;;;;;5.55;2.65;;;24.30;90.30;;;;;;5012095;28;20130;-37
2022/06/24 12:02:59;;;;;;;4.22;1.95;;;24.30;86.50;;;;;;5014721;28;20065;-38
2022/06/24 12:05:32;;;;;;;5.18;1.85;;;24.20;90.70;;;;;;5011169;28;20025;-39
2022/06/24 12:07:59;;;;;;;6.13;1.70;;;24.10;90.30;;;;;;5014217;28;20046;-38
2022/06/24 12:10:25;;;;;;;4.53;1.73;;;24.40;90.10;;;;;;5011318;28;20080;-36
2022/06/24 12:12:57;;;;;;;4.85;2.17;;;24.40;83.70;;;;;;5011469;28;20022;-39
2022/06/24 12:15:25;;;;;;;5.68;1.88;;;24.30;86.10;;;;;;5012073;28;20450;-38
2022/06/24 12:17:55;;;;;;;6.47;2.17;;;24.30;90.20;;;;;;5010495;28;20526;-38
2022/06/24 12:20:25;;;;;;;4.55;1.63;;;24.20;89.50;;;;;;5008780;28;20491;-39
2022/06/24 12:23:13;;;;;;;7.95;2.28;;;24.20;87.10;;;;;;5007579;28;20038;-39
2022/06/24 12:25:40;;;;;;;4.28;2.10;;;24.10;87.80;;;;;;5012896;28;20034;-39
2022/06/24 12:28:21;;;;;;;4.83;2.00;;;23.90;90.70;;;;;;5013907;28;20434;-38
2022/06/24 12:31:05;;;;;;;2.90;1.85;;;23.80;91.10;;;;;;5012297;28;20774;-36
2022/06/24 12:33:36;;;;;;;3.95;1.98;;;23.70;92.10;;;;;;5010331;28;20491;-39
2022/06/24 12:36:10;;;;;;;4.07;1.70;;;23.70;92.10;;;;;;5012599;28;20030;-40
2022/06/24 12:38:52;;;;;;;3.38;1.80;;;23.60;91.30;;;;;;5011654;28;20301;-39
2022/06/24 12:41:20;;;;;;;4.80;1.90;;;23.60;90.50;;;;;;5010837;28;20088;-39
2022/06/24 12:44:01;;;;;;;3.13;1.67;;;23.40;92.60;;;;;;5009809;28;20030;-39
2022/06/24 12:52:39;;;;;;;6.22;1.88;;;23.10;92.50;;;;;;5013780;28;20028;-37
2022/06/24 12:55:07;;;;;;;4.32;1.95;;;23.00;92.70;;;;;;5008702;28;20057;-39
2022/06/24 12:57:33;;;;;;;4.60;1.60;;;22.80;94.90;;;;;;5007871;28;20029;-37
2022/06/24 12:59:59;;;;;;;7.70;2.10;;;22.80;95.70;;;;;;5015192;28;20038;-39
2022/06/24 13:02:25;;;;;;;7.68;2.13;;;22.60;97.30;;;;;;5014140;28;20042;-37
2022/06/24 13:04:51;;;;;;;3.10;2.10;;;22.40;98.30;;;;;;5015021;28;20034;-38
2022/06/24 13:07:16;;;;;;;6.63;2.05;;;22.30;99.90;;;;;;5012326;28;20049;-38
2022/06/24 13:09:42;;;;;;;4.55;2.30;;;22.20;99.90;;;;;;5013879;28;20153;-38